Time;durP1;ratioP1;P1;durP2;ratioP2;P2;SDS_P1;SDS_P2;PMS_P1;PMS_P2;Temp;Humidity;BMP_temperature;BMP_pressure;BME280_temperature;BME280_humidity;BME280_pressure;Samples;Min_cycle;Max_cycle;Signal;HPM_P1;HPM_P2
2021/04/19 00:00:32;;;;;;;36.03;21.55;;;11.00;99.90;;;11.43;69.78;102116.06;5073148;28;20098;-76
2021/04/19 00:03:00;;;;;;;39.15;23.25;;;11.00;99.90;;;11.42;69.65;102119.56;5090351;28;20537;-76
2021/04/19 00:05:28;;;;;;;40.92;21.75;;;11.10;99.90;;;11.45;69.52;102116.97;5074487;28;20032;-76
2021/04/19 00:07:55;;;;;;;35.88;21.75;;;11.10;99.90;;;11.49;69.08;102110.81;5090068;28;20052;-76
2021/04/19 00:10:27;;;;;;;35.03;22.52;;;11.10;99.90;;;11.61;68.85;102104.78;5074426;28;20048;-76
2021/04/19 00:12:55;;;;;;;35.22;22.55;;;11.20;99.90;;;11.69;68.35;102104.00;5074474;28;20135;-77
2021/04/19 00:15:22;;;;;;;33.75;21.35;;;11.30;99.90;;;11.58;68.50;102088.81;5073562;28;20037;-77
2021/04/19 00:17:50;;;;;;;36.13;22.05;;;11.30;99.90;;;11.52;68.15;102080.81;5074370;28;20048;-77
2021/04/19 00:20:20;;;;;;;31.88;21.02;;;11.30;99.90;;;11.67;68.08;102097.78;5074168;28;20056;-77
2021/04/19 00:22:47;;;;;;;33.53;21.52;;;11.30;99.90;;;11.69;68.13;102093.41;5074417;28;20048;-76
2021/04/19 00:25:16;;;;;;;35.38;22.40;;;11.30;99.90;;;11.68;68.05;102091.63;5072986;28;20127;-76
2021/04/19 00:27:45;;;;;;;31.67;21.25;;;11.30;99.90;;;11.69;67.75;102090.75;5074188;28;20453;-77
2021/04/19 00:30:14;;;;;;;38.13;23.25;;;11.30;99.90;;;11.58;67.77;102054.38;5073920;28;20507;-76
2021/04/19 00:32:41;;;;;;;33.88;21.30;;;11.40;99.90;;;11.74;67.83;102089.06;5073964;28;20048;-76
2021/04/19 00:35:10;;;;;;;38.72;21.90;;;11.40;99.90;;;11.90;67.49;102087.44;5074192;28;20155;-77
2021/04/19 00:37:37;;;;;;;33.70;21.83;;;11.50;99.90;;;11.91;67.19;102080.34;5074078;28;20056;-76
2021/04/19 00:40:08;;;;;;;36.08;21.02;;;11.50;99.90;;;11.91;67.21;102088.31;5072632;28;20415;-77
2021/04/19 00:42:37;;;;;;;31.58;20.38;;;11.50;99.90;;;11.78;67.20;102089.97;5073864;28;20507;-77
2021/04/19 00:45:08;;;;;;;34.85;21.23;;;11.50;99.90;;;11.63;67.40;102085.34;5073821;28;20125;-76
2021/04/19 00:47:36;;;;;;;29.90;21.55;;;11.30;99.90;;;11.58;67.75;102084.44;5073921;28;20503;-77
2021/04/19 00:50:06;;;;;;;27.88;20.67;;;11.30;99.90;;;11.54;68.03;102077.31;5073798;28;20044;-76
2021/04/19 00:52:35;;;;;;;31.35;20.70;;;11.20;99.90;;;11.49;67.63;102081.69;5072513;28;20048;-76
2021/04/19 00:55:02;;;;;;;32.70;21.10;;;11.20;99.90;;;11.42;67.78;102079.81;5073601;28;20060;-77
2021/04/19 00:57:34;;;;;;;36.30;21.92;;;11.10;99.90;;;11.43;67.66;102078.97;5073602;28;20051;-76
2021/04/19 01:00:04;;;;;;;35.95;22.25;;;11.10;99.90;;;11.35;67.77;102075.31;5073396;28;20044;-77
2021/04/19 01:02:33;;;;;;;28.65;19.52;;;11.00;99.90;;;10.66;68.18;101950.94;5073519;28;20059;-76
2021/04/19 01:05:01;;;;;;;32.67;20.90;;;11.00;99.90;;;11.25;68.65;102054.00;5073500;28;20093;-77
2021/04/19 01:07:28;;;;;;;35.45;21.98;;;10.90;99.90;;;11.30;68.51;102063.81;5072104;28;20058;-77
2021/04/19 01:09:56;;;;;;;37.78;22.10;;;10.90;99.90;;;11.25;68.25;102061.94;5073213;28;20399;-76
2021/04/19 01:12:23;;;;;;;32.40;21.60;;;10.90;99.90;;;11.22;68.36;102062.81;5071830;28;20048;-76
2021/04/19 01:14:52;;;;;;;36.50;21.73;;;10.90;99.90;;;11.19;68.17;102062.75;5073158;28;20171;-77
2021/04/19 01:17:20;;;;;;;34.35;22.92;;;10.90;99.90;;;11.21;68.24;102061.03;5071771;28;20055;-76
2021/04/19 01:19:48;;;;;;;35.28;21.38;;;10.90;99.90;;;11.24;68.05;102050.47;5071950;28;20471;-77
2021/04/19 01:22:18;;;;;;;36.80;23.20;;;10.90;99.90;;;11.25;68.22;102056.66;5072981;28;20045;-76
2021/04/19 01:24:45;;;;;;;33.90;22.38;;;11.00;99.90;;;11.20;67.88;102059.25;5071709;28;20051;-76
2021/04/19 01:27:13;;;;;;;32.60;22.48;;;10.90;99.90;;;11.09;68.21;102060.00;5072989;28;20167;-76
2021/04/19 01:29:40;;;;;;;31.80;22.38;;;10.80;99.90;;;10.99;68.45;102061.66;5073095;28;20121;-76
2021/04/19 01:32:09;;;;;;;30.27;22.02;;;10.70;99.90;;;10.87;68.61;102051.78;5071655;28;20569;-76
2021/04/19 01:34:38;;;;;;;32.80;21.15;;;10.50;99.90;;;10.82;69.01;102060.50;5071657;28;20419;-76
2021/04/19 01:37:07;;;;;;;33.83;22.55;;;10.50;99.90;;;10.77;69.13;102064.84;5071551;28;20143;-77
2021/04/19 01:39:38;;;;;;;33.30;21.85;;;10.40;99.90;;;10.77;69.43;102059.56;5088319;28;20048;-77
2021/04/19 01:42:07;;;;;;;;;;;10.40;99.90;;;10.85;69.23;102055.28;5073451;28;20045;-76
2021/04/19 01:44:38;;;;;;;38.63;23.02;;;10.50;99.90;;;10.92;68.78;102058.91;5072967;28;19926;-76
2021/04/19 01:47:07;;;;;;;31.85;22.00;;;10.60;99.90;;;10.86;69.06;102051.72;5071439;28;20137;-77
2021/04/19 01:49:36;;;;;;;30.83;23.23;;;10.50;99.90;;;10.78;69.38;102056.94;5071368;28;20048;-77
2021/04/19 01:52:04;;;;;;;33.55;22.42;;;10.40;99.90;;;10.01;69.40;101936.75;5072337;28;20125;-76
2021/04/19 01:54:32;;;;;;;34.90;22.35;;;10.30;99.90;;;10.57;69.98;102055.72;5072671;28;20058;-77
2021/04/19 01:57:01;;;;;;;36.40;23.55;;;10.30;99.90;;;10.49;69.81;102044.19;5071356;28;20048;-76
2021/04/19 01:59:30;;;;;;;31.35;22.75;;;10.20;99.90;;;10.25;69.72;101993.53;5088194;28;20056;-77
2021/04/19 02:02:09;;;;;;;29.92;20.63;;;10.20;99.90;;;10.39;70.22;102029.03;5087881;28;20148;-76
2021/04/19 02:04:57;;;;;;;35.45;23.55;;;10.20;99.90;;;10.49;70.30;102046.81;5071135;28;20106;-76
2021/04/19 02:07:34;;;;;;;36.42;24.58;;;10.10;99.90;;;10.46;70.35;102049.41;5072597;28;20132;-76
2021/04/19 02:10:10;;;;;;;39.40;24.10;;;10.10;99.90;;;10.40;70.69;102051.94;5087933;28;20139;-76
2021/04/19 02:12:46;;;;;;;36.47;23.60;;;10.10;99.90;;;10.44;71.08;102043.19;5088013;28;20056;-77
2021/04/19 02:15:18;;;;;;;38.15;23.55;;;10.00;99.90;;;10.46;70.86;102046.75;5072613;28;20051;-76
2021/04/19 02:18:02;;;;;;;39.40;25.55;;;10.00;99.90;;;10.36;71.44;102045.72;5071218;28;20598;-76
2021/04/19 02:20:39;;;;;;;36.25;25.00;;;10.00;99.90;;;10.38;71.75;102040.47;5071123;28;20080;-77
2021/04/19 02:23:17;;;;;;;40.67;26.63;;;9.90;99.90;;;10.38;72.71;102037.81;5070995;28;20045;-76
2021/04/19 02:25:47;;;;;;;43.25;27.27;;;10.00;99.90;;;10.40;72.78;102036.06;5072378;28;20430;-75
2021/04/19 02:28:23;;;;;;;44.50;27.33;;;10.00;99.90;;;10.39;73.09;102044.91;5072482;28;20037;-76
2021/04/19 02:30:57;;;;;;;51.65;30.00;;;10.00;99.90;;;10.37;73.94;102036.06;5070962;28;20052;-77
2021/04/19 02:33:35;;;;;;;47.35;29.25;;;10.00;99.90;;;10.43;74.71;102044.09;5087813;28;20503;-76
2021/04/19 02:36:05;;;;;;;45.35;30.67;;;10.00;99.90;;;10.44;74.96;102046.75;5088014;28;20139;-76
2021/04/19 02:38:35;;;;;;;49.17;32.28;;;10.10;99.90;;;10.41;75.98;102048.47;5089126;28;20117;-76
2021/04/19 02:41:09;;;;;;;54.63;32.03;;;10.00;99.90;;;10.47;76.25;102053.84;5074895;28;20041;-76
2021/04/19 02:43:41;;;;;;;54.22;31.67;;;10.10;99.90;;;10.41;76.22;102040.53;5074934;28;20048;-75
2021/04/19 02:46:09;;;;;;;51.90;32.58;;;10.10;99.90;;;10.41;76.23;102028.19;5074700;28;20075;-76
2021/04/19 02:48:38;;;;;;;54.72;33.88;;;10.20;99.90;;;10.23;77.65;102032.28;5076206;28;20048;-75
2021/04/19 02:51:17;;;;;;;55.57;34.53;;;9.90;99.90;;;10.28;77.66;102035.91;5074832;28;20048;-76
2021/04/19 02:53:48;;;;;;;;;;;9.90;99.90;;;10.19;78.09;102041.03;5092067;28;20063;-75
2021/04/19 02:56:16;;;;;;;49.88;31.35;;;9.90;99.90;;;10.27;77.91;102042.06;5075935;28;19991;-76
2021/04/19 02:58:50;;;;;;;58.03;34.33;;;9.90;99.90;;;10.36;77.79;102039.53;5074398;28;20037;-76
2021/04/19 03:01:25;;;;;;;57.67;34.72;;;10.00;99.90;;;10.41;78.57;102035.22;5074514;28;20173;-76
2021/04/19 03:04:00;;;;;;;50.67;33.22;;;10.00;99.90;;;10.42;78.08;102037.00;5076172;28;20045;-76
2021/04/19 03:06:30;;;;;;;;;;;10.00;99.90;;;10.47;77.75;102037.97;5074987;28;20600;-76
2021/04/19 03:09:04;;;;;;;53.22;32.38;;;10.10;99.90;;;10.56;77.68;102036.34;5091303;28;19920;-76
2021/04/19 03:11:43;;;;;;;54.65;34.35;;;10.10;99.90;;;10.40;77.30;102022.84;5075451;28;20488;-76
2021/04/19 03:14:15;;;;;;;53.30;32.55;;;10.10;99.90;;;10.38;77.86;102037.81;5074391;28;20056;-76
2021/04/19 03:17:07;;;;;;;51.10;33.25;;;10.00;99.90;;;10.33;78.06;102013.97;5074168;28;20045;-75
2021/04/19 03:20:04;;;;;;;49.47;32.10;;;10.00;99.90;;;10.68;77.27;102039.13;5075069;28;20048;-76
2021/04/19 03:22:43;;;;;;;50.65;32.20;;;10.20;99.90;;;10.61;77.37;102037.28;5091051;28;20087;-76
2021/04/19 03:25:13;;;;;;;50.95;31.20;;;10.20;99.90;;;10.70;76.94;102024.19;5074180;28;20055;-75
2021/04/19 03:27:44;;;;;;;48.50;31.92;;;10.30;99.90;;;10.57;76.61;102032.81;5074067;28;20453;-75
2021/04/19 03:30:15;;;;;;;49.85;30.73;;;10.30;99.90;;;10.46;76.30;101994.75;5073851;28;20094;-75
2021/04/19 03:32:52;;;;;;;50.50;31.88;;;10.30;99.90;;;10.63;75.89;102034.66;5074097;28;20048;-76
2021/04/19 03:35:29;;;;;;;45.90;31.92;;;10.30;99.90;;;10.60;76.05;102027.59;5073941;28;20549;-75
2021/04/19 03:38:00;;;;;;;48.20;31.15;;;10.20;99.90;;;10.55;75.96;102023.09;5073876;28;20136;-75
2021/04/19 03:40:30;;;;;;;45.28;30.67;;;10.20;99.90;;;10.54;76.18;102021.31;5073710;28;20051;-76
2021/04/19 03:43:13;;;;;;;47.47;30.40;;;10.10;99.90;;;10.29;76.94;102011.25;5075277;28;20056;-76
2021/04/19 03:45:54;;;;;;;50.00;32.15;;;10.00;99.90;;;10.36;77.57;102007.81;5073684;28;20085;-76
2021/04/19 03:48:26;;;;;;;49.65;30.67;;;10.00;99.90;;;10.53;76.97;102014.25;5075012;28;20475;-76
2021/04/19 03:51:06;;;;;;;43.60;29.40;;;10.10;99.90;;;9.89;77.18;101904.00;5072093;28;20053;-75
2021/04/19 03:53:39;;;;;;;49.55;31.17;;;10.10;99.90;;;10.33;77.60;102018.34;5073737;28;20045;-75
2021/04/19 03:56:09;;;;;;;48.58;30.70;;;10.00;99.90;;;10.45;77.63;102021.19;5075043;28;20059;-75
2021/04/19 03:58:47;;;;;;;48.80;31.92;;;10.10;99.90;;;9.94;77.56;101937.56;5090385;28;20099;-75
2021/04/19 04:01:17;;;;;;;45.58;29.73;;;10.10;99.90;;;10.40;77.51;102014.91;5090151;28;20478;-75
2021/04/19 04:03:48;;;;;;;51.03;30.02;;;10.00;99.90;;;10.32;77.57;102012.16;5074636;28;20044;-75
2021/04/19 04:06:24;;;;;;;41.92;28.15;;;10.00;99.90;;;10.26;77.65;101996.22;5073473;28;20079;-72
2021/04/19 04:08:55;;;;;;;45.03;28.98;;;10.00;99.90;;;10.40;77.82;102002.59;5090230;28;20048;-73
2021/04/19 04:11:23;;;;;;;46.63;29.55;;;10.00;99.90;;;10.42;77.57;102011.44;5074418;28;20057;-69
2021/04/19 04:13:59;;;;;;;47.80;27.65;;;10.00;99.90;;;10.48;77.72;101998.31;5089967;28;20143;-70
2021/04/19 04:16:29;;;;;;;45.75;28.00;;;10.10;99.90;;;10.40;78.12;102004.34;5073256;28;20507;-71
2021/04/19 04:19:07;;;;;;;42.38;27.83;;;10.00;99.90;;;10.15;78.48;101971.38;5074554;28;20044;-71
2021/04/19 04:21:43;;;;;;;47.53;28.67;;;9.90;99.90;;;10.21;78.50;101994.38;5072904;28;20450;-70
2021/04/19 04:24:24;;;;;;;43.00;27.23;;;9.90;99.90;;;10.15;78.90;101995.16;5073106;28;20056;-70
2021/04/19 04:26:52;;;;;;;44.95;28.50;;;9.80;99.90;;;10.20;78.52;101992.59;5073012;28;20119;-69
2021/04/19 04:29:20;;;;;;;42.92;28.40;;;9.80;99.90;;;10.39;78.77;101998.19;5072941;28;20530;-71
2021/04/19 04:32:09;;;;;;;53.22;30.00;;;10.00;99.90;;;10.30;78.45;101949.56;5072798;28;20102;-68
2021/04/19 04:34:39;;;;;;;48.92;29.02;;;10.10;99.90;;;10.47;77.86;101995.66;5072675;28;20466;-68
2021/04/19 04:37:07;;;;;;;50.88;29.15;;;10.10;99.90;;;10.46;77.95;101996.50;5074143;28;20076;-69
2021/04/19 04:39:42;;;;;;;51.65;28.63;;;10.10;99.90;;;10.38;77.92;102001.69;5072739;28;20048;-68
2021/04/19 04:42:17;;;;;;;45.78;27.70;;;10.00;99.90;;;10.43;78.13;101999.97;5072632;28;20071;-70
2021/04/19 04:44:48;;;;;;;43.03;27.33;;;10.00;99.90;;;10.48;77.60;102008.00;5072659;28;20082;-73
2021/04/19 04:47:27;;;;;;;44.95;28.80;;;10.10;99.90;;;10.46;77.27;101985.91;5073722;28;20376;-70
2021/04/19 04:50:07;;;;;;;50.50;28.38;;;10.10;99.90;;;10.70;77.30;102010.06;5089414;28;20052;-70
2021/04/19 04:52:39;;;;;;;41.08;26.70;;;10.30;99.90;;;10.69;77.10;101997.69;5074097;28;20491;-70
2021/04/19 04:55:09;;;;;;;49.78;27.92;;;10.30;99.90;;;10.47;77.74;102000.94;5072574;28;20059;-70
2021/04/19 04:57:37;;;;;;;;;;;10.20;99.90;;;10.68;77.95;102001.22;5073913;28;20048;-70
2021/04/19 05:00:07;;;;;;;47.13;30.02;;;10.30;99.90;;;10.70;78.15;101999.50;5073429;28;20460;-70
2021/04/19 05:02:36;;;;;;;47.20;28.83;;;10.40;99.90;;;10.80;77.82;101993.47;5073170;28;20053;-70
2021/04/19 05:05:05;;;;;;;44.58;28.90;;;10.50;99.90;;;10.93;77.70;101999.78;5072117;28;20048;-70
2021/04/19 05:07:33;;;;;;;46.20;28.83;;;10.60;99.90;;;10.96;77.45;102003.34;5073182;28;20052;-70
2021/04/19 05:10:03;;;;;;;48.55;30.10;;;10.60;99.90;;;11.07;77.17;102001.69;5071575;28;20407;-70
2021/04/19 05:12:32;;;;;;;53.42;30.38;;;10.70;99.90;;;10.89;77.46;102002.41;5073298;28;20048;-70
2021/04/19 05:15:01;;;;;;;47.95;29.13;;;10.60;99.90;;;10.85;78.12;101990.00;5073053;28;20068;-70
2021/04/19 05:17:29;;;;;;;46.63;29.80;;;10.60;99.90;;;11.02;77.89;101995.47;5072856;28;20400;-70
2021/04/19 05:19:58;;;;;;;48.28;30.73;;;10.70;99.90;;;10.97;77.63;101994.53;5072903;28;20147;-70
2021/04/19 05:22:25;;;;;;;47.70;29.65;;;10.70;99.90;;;11.09;77.62;102007.03;5072888;28;20123;-70
2021/04/19 05:24:53;;;;;;;50.35;29.50;;;10.80;99.90;;;10.88;77.58;102000.59;5073287;28;20060;-70
2021/04/19 05:27:21;;;;;;;50.60;30.88;;;10.60;99.90;;;11.06;77.61;101994.66;5072881;28;20119;-70
2021/04/19 05:29:48;;;;;;;48.45;29.27;;;10.70;99.90;;;10.84;78.53;101974.97;5072845;28;20094;-70
2021/04/19 05:32:18;;;;;;;51.83;30.63;;;10.60;99.90;;;10.87;78.17;101974.13;5072501;28;20086;-70
2021/04/19 05:34:46;;;;;;;56.92;31.23;;;10.60;99.90;;;10.93;78.12;101979.50;5072581;28;20518;-70
2021/04/19 05:37:17;;;;;;;48.38;29.65;;;10.60;99.90;;;10.87;78.61;101987.34;5072452;28;20056;-70
2021/04/19 05:39:45;;;;;;;;;;;10.50;99.90;;;11.12;78.12;102000.00;5073258;28;20049;-70
2021/04/19 05:42:14;;;;;;;51.38;28.08;;;10.70;99.90;;;11.35;77.79;101987.91;5072733;28;19928;-70
2021/04/19 05:44:42;;;;;;;48.60;28.80;;;11.00;99.90;;;11.54;77.01;102000.47;5071328;28;20049;-70
2021/04/19 05:47:12;;;;;;;48.55;29.23;;;11.20;99.90;;;11.68;76.68;102000.63;5072426;28;20048;-70
2021/04/19 05:49:41;;;;;;;46.25;29.60;;;11.30;99.90;;;11.92;75.88;102008.81;5088152;28;20403;-70
2021/04/19 05:52:11;;;;;;;47.00;26.77;;;11.60;99.90;;;12.07;75.23;102010.69;5072520;28;20045;-70
2021/04/19 05:54:41;;;;;;;49.13;28.00;;;11.70;99.90;;;12.25;74.68;102011.69;5072542;28;20114;-70
2021/04/19 05:57:29;;;;;;;47.05;28.30;;;11.90;99.90;;;12.43;74.02;102018.91;5072779;28;20048;-70
2021/04/19 06:00:04;;;;;;;46.28;27.10;;;12.00;99.90;;;12.58;73.42;102027.84;5072436;28;20585;-70
2021/04/19 06:02:52;;;;;;;44.33;25.67;;;12.20;99.90;;;12.69;72.45;102020.84;5072249;28;20093;-70
2021/04/19 06:05:22;;;;;;;;;;;12.40;99.90;;;12.88;72.03;102019.16;5071743;28;20478;-70
2021/04/19 06:08:02;;;;;;;43.42;25.58;;;12.50;99.90;;;12.85;71.50;101997.03;5072543;28;19953;-70
2021/04/19 06:10:53;;;;;;;47.33;25.63;;;12.60;99.90;;;13.23;71.31;102006.94;5072524;28;20060;-71
2021/04/19 06:13:31;;;;;;;41.65;24.77;;;12.90;99.90;;;13.40;70.44;102015.84;5070680;28;20478;-71
2021/04/19 06:16:02;;;;;;;44.10;23.73;;;13.00;99.90;;;13.59;69.32;102017.66;5072285;28;20082;-71
2021/04/19 06:18:31;;;;;;;;;;;13.20;99.90;;;13.69;68.44;102017.66;5071469;28;20385;-71
2021/04/19 06:21:01;;;;;;;38.03;22.63;;;13.40;99.90;;;13.82;68.46;102008.81;5087691;28;19955;-71
2021/04/19 06:23:29;;;;;;;39.80;22.77;;;13.50;99.90;;;13.94;67.88;102014.13;5072162;28;20048;-72
2021/04/19 06:25:59;;;;;;;37.30;22.95;;;13.60;99.90;;;13.99;67.59;102017.69;5071098;28;20107;-72
2021/04/19 06:28:27;;;;;;;35.92;21.83;;;13.70;99.90;;;13.90;67.55;102012.38;5072339;28;20046;-71
2021/04/19 06:31:17;;;;;;;36.42;20.48;;;13.60;99.90;;;14.15;66.83;102019.47;5071944;28;20048;-71
2021/04/19 06:34:10;;;;;;;37.95;21.70;;;13.80;99.90;;;14.22;66.25;102021.22;5072095;28;20479;-71
2021/04/19 06:36:39;;;;;;;34.50;21.48;;;13.80;99.90;;;14.28;65.85;102014.16;5087629;28;20491;-72
2021/04/19 06:39:09;;;;;;;34.28;20.65;;;14.00;99.90;;;14.36;65.22;102011.50;5072076;28;20044;-72
2021/04/19 06:41:38;;;;;;;28.27;19.02;;;14.10;99.90;;;14.55;64.73;102012.31;5072028;28;20045;-71
2021/04/19 06:44:06;;;;;;;31.95;19.40;;;14.20;99.90;;;14.60;64.24;102018.50;5071758;28;20053;-74
2021/04/19 06:46:36;;;;;;;30.08;19.65;;;14.30;99.90;;;14.72;63.85;102008.72;5071690;28;20543;-71
2021/04/19 06:49:05;;;;;;;;;;;14.40;99.90;;;14.80;63.35;102011.38;5072608;28;20055;-73
2021/04/19 06:51:34;;;;;;;32.38;18.90;;;14.60;99.90;;;14.84;63.27;102006.03;5070545;28;20371;-72
2021/04/19 06:54:04;;;;;;;29.88;18.00;;;14.50;99.90;;;14.93;63.21;102011.31;5087470;28;20057;-72
2021/04/19 06:56:38;;;;;;;28.35;18.42;;;14.60;99.90;;;15.07;62.86;101996.16;5071253;28;20041;-71
2021/04/19 06:59:10;;;;;;;26.90;17.95;;;14.80;99.90;;;15.31;61.86;101998.69;5071986;28;20047;-71
2021/04/19 07:01:39;;;;;;;33.15;18.92;;;15.00;99.90;;;15.29;61.63;101992.47;5070588;28;20174;-72
2021/04/19 07:04:11;;;;;;;30.40;18.83;;;15.10;99.90;;;15.40;61.55;101997.75;5071993;28;20040;-72
2021/04/19 07:06:40;;;;;;;28.42;18.38;;;15.10;99.90;;;15.55;60.89;101972.78;5071882;28;20127;-71
2021/04/19 07:09:20;;;;;;;30.10;18.08;;;15.30;99.90;;;15.62;60.27;102004.75;5071951;28;20044;-72
2021/04/19 07:11:53;;;;;;;28.45;17.48;;;15.30;99.90;;;15.61;60.17;101994.09;5071741;28;20045;-72
2021/04/19 07:14:25;;;;;;;31.75;18.60;;;15.30;99.90;;;15.69;60.49;101993.16;5071766;28;20140;-72
2021/04/19 07:16:53;;;;;;;30.08;18.20;;;15.40;99.90;;;15.85;59.97;101999.25;5087184;28;20041;-72
2021/04/19 07:19:22;;;;;;;26.75;17.02;;;15.60;99.90;;;15.87;59.79;101994.78;5071422;28;20488;-72
2021/04/19 07:21:51;;;;;;;32.38;19.33;;;15.60;99.90;;;15.98;60.16;101988.47;5071776;28;20064;-72
2021/04/19 07:24:18;;;;;;;31.45;18.40;;;15.80;99.90;;;16.10;59.26;102000.81;5072421;28;20510;-72
2021/04/19 07:26:50;;;;;;;25.25;18.25;;;15.90;99.90;;;16.14;59.12;101995.41;5073966;28;20049;-72
2021/04/19 07:29:17;;;;;;;29.45;17.80;;;15.90;99.90;;;16.06;58.73;101996.41;5075319;28;20131;-72
2021/04/19 07:31:49;;;;;;;24.50;18.17;;;15.90;99.90;;;16.23;58.81;101983.78;5073737;28;20048;-72
2021/04/19 07:34:20;;;;;;;28.13;18.23;;;15.90;99.90;;;16.26;58.50;101981.06;5090928;28;20048;-72
2021/04/19 07:36:53;;;;;;;28.17;18.10;;;16.00;99.90;;;16.24;58.43;101982.88;5075127;28;20045;-72
2021/04/19 07:39:22;;;;;;;32.65;20.13;;;16.00;99.90;;;16.18;58.05;101982.94;5075181;28;20048;-72
2021/04/19 07:41:52;;;;;;;27.33;18.45;;;16.00;99.90;;;16.10;58.28;101964.31;5075028;28;20102;-72
2021/04/19 07:44:41;;;;;;;30.52;18.58;;;16.00;99.90;;;16.04;58.55;101979.50;5074906;28;20045;-73
2021/04/19 07:47:35;;;;;;;29.15;19.08;;;15.90;99.90;;;15.94;58.48;101984.06;5073657;28;20059;-72
2021/04/19 07:50:17;;;;;;;27.70;18.67;;;15.80;99.90;;;15.72;58.85;101962.88;5056292;28;20049;-72
2021/04/19 07:52:59;;;;;;;32.33;18.98;;;15.60;99.90;;;15.77;59.23;101974.41;5072935;28;20045;-72
2021/04/19 07:55:29;;;;;;;32.20;18.98;;;15.50;99.90;;;15.63;59.71;101970.97;5090413;28;20048;-72
2021/04/19 07:58:09;;;;;;;32.95;20.63;;;15.40;99.90;;;15.45;59.93;101963.97;5073465;28;20048;-73
2021/04/19 08:00:38;;;;;;;27.75;19.60;;;15.30;99.90;;;15.26;60.31;101936.53;5074174;28;20128;-72
2021/04/19 08:03:08;;;;;;;30.20;19.85;;;15.20;99.90;;;15.45;60.26;101968.44;5074613;28;20103;-72
2021/04/19 08:05:40;;;;;;;29.92;20.70;;;15.20;99.90;;;15.36;60.90;101970.22;5074750;28;20044;-72
2021/04/19 08:08:09;;;;;;;27.45;19.52;;;15.00;99.90;;;15.32;60.96;101970.25;5073429;28;20458;-72
2021/04/19 08:10:39;;;;;;;32.78;20.40;;;15.00;99.90;;;15.24;61.20;101958.75;5074451;28;20098;-71
2021/04/19 08:13:11;;;;;;;30.60;20.38;;;15.00;99.90;;;14.99;61.55;101946.44;5074519;28;20053;-72
2021/04/19 08:15:42;;;;;;;32.63;19.70;;;15.00;99.90;;;15.27;61.68;101988.94;5074290;28;20404;-72
2021/04/19 08:18:13;;;;;;;31.00;19.33;;;15.00;99.90;;;15.20;61.43;101984.53;5074495;28;20040;-71
2021/04/19 08:20:49;;;;;;;28.02;18.35;;;14.90;99.90;;;15.03;62.00;101966.84;5089947;28;20582;-72
2021/04/19 08:23:18;;;;;;;35.60;20.67;;;14.90;99.90;;;15.01;62.33;101985.53;5074171;28;20057;-71
2021/04/19 08:25:48;;;;;;;33.47;20.17;;;14.70;99.90;;;14.79;62.58;101982.97;5074066;28;20044;-72
2021/04/19 08:28:19;;;;;;;31.15;20.25;;;14.60;99.90;;;14.36;62.82;101894.38;5074045;28;20110;-72
2021/04/19 08:30:49;;;;;;;28.75;19.52;;;14.60;99.90;;;14.86;62.91;101985.59;5074245;28;20048;-72
2021/04/19 08:33:17;;;;;;;29.33;19.40;;;14.60;99.90;;;14.75;63.22;101976.75;5074217;28;20048;-72
2021/04/19 08:35:47;;;;;;;29.38;19.75;;;14.60;99.90;;;14.86;62.87;101985.59;5072085;28;20036;-72
2021/04/19 08:38:19;;;;;;;34.83;20.67;;;14.60;99.90;;;14.87;63.34;101989.13;5073854;28;20048;-72
2021/04/19 08:40:47;;;;;;;31.63;20.25;;;14.60;99.90;;;14.95;62.82;101988.22;5073805;28;20044;-72
2021/04/19 08:43:20;;;;;;;29.30;20.13;;;14.70;99.90;;;14.85;62.95;101982.91;5073603;28;20495;-72
2021/04/19 08:45:49;;;;;;;30.42;20.85;;;14.70;99.90;;;14.93;63.19;101978.44;5073840;28;20098;-72
2021/04/19 08:48:16;;;;;;;31.15;20.73;;;14.70;99.90;;;15.04;63.21;101987.31;5073729;28;20040;-72
2021/04/19 08:50:48;;;;;;;30.50;21.20;;;14.70;99.90;;;15.09;63.03;101978.38;5073606;28;20087;-72
2021/04/19 08:53:17;;;;;;;31.88;20.58;;;14.80;99.90;;;15.18;62.83;101977.44;5088987;28;20057;-72
2021/04/19 08:55:46;;;;;;;35.03;22.95;;;14.90;99.90;;;15.19;62.45;101966.75;5073461;28;20491;-72
2021/04/19 08:58:16;;;;;;;36.75;23.00;;;15.00;99.90;;;15.29;61.95;101984.47;5089133;28;20098;-72
2021/04/19 09:00:48;;;;;;;32.47;20.45;;;15.00;99.90;;;15.30;62.17;101978.25;5073502;28;20062;-72
2021/04/19 09:03:18;;;;;;;33.67;21.88;;;15.00;99.90;;;15.20;62.14;101952.56;5070588;28;20048;-72
2021/04/19 09:05:47;;;;;;;37.72;21.88;;;15.00;99.90;;;15.41;61.69;101974.66;5073349;28;20124;-72
2021/04/19 09:08:16;;;;;;;33.40;22.70;;;15.10;99.90;;;15.51;62.04;101977.25;5073410;28;20151;-72
2021/04/19 09:10:53;;;;;;;31.65;22.42;;;15.20;99.90;;;15.67;61.91;101970.94;5073072;28;20041;-72
2021/04/19 09:13:32;;;;;;;31.25;21.48;;;15.30;99.90;;;15.88;61.60;101972.53;5073267;28;20041;-72
2021/04/19 09:16:16;;;;;;;33.42;22.15;;;15.60;99.90;;;16.00;61.20;101986.66;5071710;28;20496;-72
2021/04/19 09:18:46;;;;;;;33.40;22.02;;;15.80;99.90;;;15.94;60.67;101960.03;5073157;28;20044;-72
2021/04/19 09:21:40;;;;;;;32.97;22.20;;;15.80;99.90;;;16.20;60.38;101975.81;5073316;28;20043;-72
2021/04/19 09:24:10;;;;;;;31.25;21.50;;;15.90;99.90;;;16.33;60.20;101974.78;5072858;28;20517;-72
2021/04/19 09:26:52;;;;;;;33.83;21.60;;;16.00;99.90;;;16.05;59.51;101926.13;5072845;28;20044;-72
2021/04/19 09:29:47;;;;;;;28.20;21.63;;;16.10;99.90;;;16.59;60.01;101974.53;5073310;28;20106;-72
2021/04/19 09:32:24;;;;;;;37.75;23.05;;;16.30;99.90;;;16.59;59.57;101956.69;5072962;28;20502;-72
2021/04/19 09:34:59;;;;;;;32.35;21.63;;;16.40;99.90;;;16.74;59.50;101969.88;5072824;28;20053;-72
2021/04/19 09:37:53;;;;;;;31.27;22.00;;;16.50;99.90;;;17.10;58.84;101977.44;5088436;28;20569;-71
2021/04/19 09:40:25;;;;;;;33.53;23.15;;;16.80;99.90;;;17.21;58.28;101971.06;5072382;28;20052;-72
2021/04/19 09:43:10;;;;;;;32.30;22.40;;;17.00;99.90;;;17.55;57.51;101970.59;5072596;28;20102;-73
2021/04/19 09:45:53;;;;;;;31.15;21.33;;;17.30;99.90;;;17.72;56.13;101976.56;5071448;28;20060;-72
2021/04/19 09:49:00;;;;;;;33.30;22.50;;;17.50;99.90;;;17.98;55.94;101981.50;5072505;28;20511;-72
2021/04/19 09:51:33;;;;;;;30.10;22.65;;;17.70;99.90;;;17.97;54.83;101977.03;5072693;28;20044;-73
2021/04/19 09:54:05;;;;;;;30.92;23.15;;;17.80;99.90;;;18.15;55.12;101981.19;5072876;28;20041;-72
2021/04/19 09:56:41;;;;;;;29.15;22.75;;;17.90;99.90;;;18.07;54.76;101967.03;5073023;28;20411;-72
2021/04/19 09:59:10;;;;;;;32.50;22.70;;;17.90;99.90;;;18.06;55.78;101942.03;5072653;28;20045;-72
2021/04/19 10:01:38;;;;;;;35.55;23.08;;;18.10;99.90;;;18.19;55.20;101967.72;5072201;28;20117;-72
2021/04/19 10:04:07;;;;;;;31.20;23.42;;;18.00;99.90;;;18.01;54.21;101976.06;5072096;28;20531;-73
2021/04/19 10:06:43;;;;;;;36.15;23.88;;;17.90;99.90;;;17.21;55.77;101976.44;5072381;28;20381;-73
2021/04/19 10:09:13;;;;;;;33.88;25.58;;;17.50;99.90;;;16.27;59.17;101937.47;5072446;28;20048;-73
2021/04/19 10:11:42;;;;;;;34.38;24.33;;;16.30;99.90;;;15.97;58.88;101975.09;5072380;28;20082;-73
2021/04/19 10:14:13;;;;;;;35.20;25.63;;;16.00;99.90;;;15.14;63.33;101967.69;5072247;28;20550;-74
2021/04/19 10:16:42;;;;;;;36.15;27.38;;;15.10;99.90;;;14.38;66.43;101956.47;5087720;28;20064;-73
2021/04/19 10:19:11;;;;;;;39.38;26.75;;;14.20;99.90;;;14.86;65.61;101945.63;5072390;28;20059;-73
2021/04/19 10:21:39;;;;;;;34.75;25.48;;;14.50;99.90;;;15.27;63.97;101882.28;5072327;28;20045;-74
2021/04/19 10:24:16;;;;;;;36.20;26.90;;;15.10;99.90;;;16.27;62.01;101958.81;5072323;28;20037;-74